Time;durP1;ratioP1;P1;durP2;ratioP2;P2;SDS_P1;SDS_P2;PMS_P1;PMS_P2;Temp;Humidity;BMP_temperature;BMP_pressure;BME280_temperature;BME280_humidity;BME280_pressure;Samples;Min_cycle;Max_cycle;Signal;HPM_P1;HPM_P2
2022/01/10 00:01:54;;;;;;;;;;;;;;;;;;5117190;28;19915;-74
2022/01/10 00:04:19;;;;;;;;;;;;;;;;;;5136814;27;20327;-74
2022/01/10 00:06:45;;;;;;;;;;;;;;;;;;5101809;27;19937;-74
2022/01/10 00:09:10;;;;;;;;;;;;;;;;;;5118761;27;19916;-74
2022/01/10 00:11:36;;;;;;;;;;;;;;;;;;5136782;27;19920;-74
2022/01/10 00:14:01;;;;;;;;;;;;;;;;;;5136765;27;20396;-74
2022/01/10 00:16:26;;;;;;;;;;;;;;;;;;5137049;27;19920;-74
2022/01/10 00:18:52;;;;;;;;;;;;;;;;;;5136864;27;19916;-74
2022/01/10 00:21:17;;;;;;;;;;;;;;;;;;5136830;27;19916;-74
2022/01/10 00:23:42;;;;;;;;;;;;;;;;;;5136886;27;19920;-74
2022/01/10 00:26:08;;;;;;;;;;;;;;;;;;5136808;27;20014;-74
2022/01/10 00:28:33;;;;;;;;;;;;;;;;;;5136625;27;19922;-74
2022/01/10 00:30:59;;;;;;;;;;;;;;;;;;5136735;27;19923;-74
2022/01/10 00:33:24;;;;;;;;;;;;;;;;;;5136771;27;19916;-74
2022/01/10 00:35:49;;;;;;;;;;;;;;;;;;5118163;27;20002;-74
2022/01/10 00:38:15;;;;;;;;;;;;;;;;;;5135606;27;19968;-74
2022/01/10 00:40:42;;;;;;;;;;;;;;;;;;5118314;27;19919;-74
2022/01/10 00:43:10;;;;;;;;;;;;;;;;;;5118260;27;19929;-74
2022/01/10 00:45:35;;;;;;;;;;;;;;;;;;5118242;27;19915;-74
2022/01/10 00:48:01;;;;;;;;;;;;;;;;;;5117802;27;19920;-74
2022/01/10 00:50:27;;;;;;;;;;;;;;;;;;5136132;27;19927;-74
2022/01/10 00:52:54;;;;;;;;;;;;;;;;;;5136295;27;20026;-74
2022/01/10 00:55:19;;;;;;;;;;;;;;;;;;5135999;27;19915;-74
2022/01/10 00:57:44;;;;;;;;;;;;;;;;;;5117731;27;19975;-74
2022/01/10 01:00:11;;;;;;;;;;;;;;;;;;5135929;27;19966;-74
2022/01/10 01:02:36;;;;;;;;;;;;;;;;;;5135404;27;20015;-74
2022/01/10 01:05:05;;;;;;;;;;;;;;;;;;5135977;27;20397;-74
2022/01/10 01:07:30;;;;;;;;;;;;;;;;;;5135928;27;20357;-74
2022/01/10 01:13:06;;;;;;;;;;;;;;;;;;5062455;27;19924;-74
2022/01/10 01:15:34;;;;;;;;;;;;;;;;;;5135539;27;19920;-74
2022/01/10 01:25:54;;;;;;;;;;;;;;;;;;5116902;27;19955;-74
2022/01/10 01:28:19;;;;;;;;;;;;;;;;;;5117071;27;19958;-74
2022/01/10 01:30:45;;;;;;;;;;;;;;;;;;5135326;27;20337;-74
2022/01/10 01:33:13;;;;;;;;;;;;;;;;;;5134852;27;19966;-74
2022/01/10 01:35:38;;;;;;;;;;;;;;;;;;5117584;27;19916;-74
2022/01/10 01:38:03;;;;;;;;;;;;;;;;;;5116877;27;19923;-74
2022/01/10 01:40:31;;;;;;;;;;;;;;;;;;5135378;27;19926;-74
2022/01/10 01:42:57;;;;;;;;;;;;;;;;;;5116762;27;19919;-74
2022/01/10 01:45:36;;;;;;;;;;;;;;;;;;5135460;27;19975;-74
2022/01/10 01:48:01;;;;;;;;;;;;;;;;;;5135099;27;19927;-74
2022/01/10 01:50:27;;;;;;;;;;;;;;;;;;5116869;27;19916;-74
2022/01/10 01:52:54;;;;;;;;;;;;;;;;;;5116304;27;20208;-74
2022/01/10 01:55:19;;;;;;;;;;;;;;;;;;5116623;27;20092;-74
2022/01/10 01:57:45;;;;;;;;;;;;;;;;;;5116688;27;20345;-74
2022/01/10 02:00:10;;;;;;;;;;;;;;;;;;5116267;27;19921;-74
2022/01/10 02:02:43;;;;;;;;;;;;;;;;;;5097473;28;19916;-74
2022/01/10 02:05:08;;;;;;;;;;;;;;;;;;5096382;28;19923;-74
2022/01/10 02:07:34;;;;;;;;;;;;;;;;;;5096125;28;19960;-74
2022/01/10 02:09:59;;;;;;;;;;;;;;;;;;5095623;28;19965;-74
2022/01/10 02:12:27;;;;;;;;;;;;;;;;;;5096163;28;19919;-74
2022/01/10 02:14:52;;;;;;;;;;;;;;;;;;5114334;28;20007;-74
2022/01/10 02:17:22;;;;;;;;;;;;;;;;;;5096138;28;19977;-74
2022/01/10 02:19:56;;;;;;;;;;;;;;;;;;5096048;28;19994;-74
2022/01/10 02:22:23;;;;;;;;;;;;;;;;;;5095982;28;19923;-74
2022/01/10 02:25:01;;;;;;;;;;;;;;;;;;5095725;28;20257;-74
2022/01/10 02:27:28;;;;;;;;;;;;;;;;;;5095506;28;19915;-74
2022/01/10 02:29:53;;;;;;;;;;;;;;;;;;5114219;28;19923;-74
2022/01/10 02:32:20;;;;;;;;;;;;;;;;;;5113510;28;19923;-74
2022/01/10 02:34:45;;;;;;;;;;;;;;;;;;5134813;28;19915;-74
2022/01/10 02:37:11;;;;;;;;;;;;;;;;;;5134273;27;19968;-74
2022/01/10 02:39:36;;;;;;;;;;;;;;;;;;5116396;28;19915;-74
2022/01/10 02:42:02;;;;;;;;;;;;;;;;;;5116408;28;20268;-74
2022/01/10 02:44:29;;;;;;;;;;;;;;;;;;5116298;28;19973;-74
2022/01/10 02:46:55;;;;;;;;;;;;;;;;;;5115174;28;19964;-74
2022/01/10 02:49:32;;;;;;;;;;;;;;;;;;5116032;28;19938;-74
2022/01/10 02:51:58;;;;;;;;;;;;;;;;;;5115859;28;20369;-74
2022/01/10 02:54:25;;;;;;;;;;;;;;;;;;5116192;28;20284;-74
2022/01/10 02:56:52;;;;;;;;;;;;;;;;;;5115979;27;19923;-74
2022/01/10 02:59:18;;;;;;;;;;;;;;;;;;5116268;28;19915;-74
2022/01/10 03:01:44;;;;;;;;;;;;;;;;;;5115947;28;19915;-74
2022/01/10 03:04:11;;;;;;;;;;;;;;;;;;5115325;28;19923;-74
2022/01/10 03:06:36;;;;;;;;;;;;;;;;;;5134393;27;19938;-74
2022/01/10 03:09:05;;;;;;;;;;;;;;;;;;5115953;28;19915;-74
2022/01/10 03:11:36;;;;;;;;;;;;;;;;;;5115933;28;20360;-74
2022/01/10 03:14:02;;;;;;;;;;;;;;;;;;5115985;28;19915;-74
2022/01/10 03:16:27;;;;;;;;;;;;;;;;;;5115755;27;19918;-74
2022/01/10 03:18:53;;;;;;;;;;;;;;;;;;5099167;28;19923;-74
2022/01/10 03:21:20;;;;;;;;;;;;;;;;;;5115874;28;19958;-74
2022/01/10 03:23:51;;;;;;;;;;;;;;;;;;5134532;28;19969;-74
2022/01/10 03:26:16;;;;;;;;;;;;;;;;;;5115580;28;20466;-74
2022/01/10 03:28:42;;;;;;;;;;;;;;;;;;5115801;28;19915;-74
2022/01/10 03:31:08;;;;;;;;;;;;;;;;;;5115701;28;19926;-74
2022/01/10 03:33:34;;;;;;;;;;;;;;;;;;5115865;28;19919;-73
2022/01/10 03:35:59;;;;;;;;;;;;;;;;;;5134207;28;19915;-73
2022/01/10 03:38:25;;;;;;;;;;;;;;;;;;5118883;27;19957;-73
2022/01/10 03:40:50;;;;;;;;;;;;;;;;;;5118687;27;19939;-73
2022/01/10 03:43:21;;;;;;;;;;;;;;;;;;5119314;27;19949;-74
2022/01/10 03:45:46;;;;;;;;;;;;;;;;;;5137797;27;20356;-73
2022/01/10 03:48:13;;;;;;;;;;;;;;;;;;5098732;28;19919;-74
2022/01/10 03:50:38;;;;;;;;;;;;;;;;;;5115770;28;20301;-74
2022/01/10 03:53:04;;;;;;;;;;;;;;;;;;5115888;28;20361;-74
2022/01/10 03:55:30;;;;;;;;;;;;;;;;;;5116508;28;19916;-74
2022/01/10 03:57:58;;;;;;;;;;;;;;;;;;5116456;28;19922;-78
2022/01/10 04:00:23;;;;;;;;;;;;;;;;;;5116539;28;20010;-77
2022/01/10 04:02:55;;;;;;;;;;;;;;;;;;5117055;28;19920;-77
2022/01/10 04:05:26;;;;;;;;;;;;;;;;;;5115548;28;19951;-77
2022/01/10 04:07:52;;;;;;;;;;;;;;;;;;5115473;28;19947;-77
2022/01/10 04:10:17;;;;;;;;;;;;;;;;;;5115319;28;19919;-77
2022/01/10 04:12:42;;;;;;;;;;;;;;;;;;5116545;28;20274;-77
2022/01/10 04:15:08;;;;;;;;;;;;;;;;;;5114884;28;19965;-77
2022/01/10 04:17:34;;;;;;;;;;;;;;;;;;5116543;28;19916;-76
2022/01/10 04:20:00;;;;;;;;;;;;;;;;;;5116514;28;19947;-77
2022/01/10 04:22:25;;;;;;;;;;;;;;;;;;5115239;28;19969;-77
2022/01/10 04:24:51;;;;;;;;;;;;;;;;;;5116353;28;19951;-77
2022/01/10 04:27:17;;;;;;;;;;;;;;;;;;5115048;28;19937;-76
2022/01/10 04:29:42;;;;;;;;;;;;;;;;;;5116460;28;19976;-77
2022/01/10 04:32:10;;;;;;;;;;;;;;;;;;5116017;28;20065;-77
2022/01/10 04:34:36;;;;;;;;;;;;;;;;;;5114269;28;20408;-77
2022/01/10 04:37:01;;;;;;;;;;;;;;;;;;5115173;28;19915;-77
2022/01/10 04:39:27;;;;;;;;;;;;;;;;;;5115000;28;20385;-77
2022/01/10 04:41:52;;;;;;;;;;;;;;;;;;5114750;28;19943;-77
2022/01/10 04:44:18;;;;;;;;;;;;;;;;;;5116070;28;19922;-77
2022/01/10 04:46:44;;;;;;;;;;;;;;;;;;5115437;27;19916;-77
2022/01/10 04:49:17;;;;;;;;;;;;;;;;;;5117407;27;20287;-77
2022/01/10 04:51:43;;;;;;;;;;;;;;;;;;5118033;27;19959;-77
2022/01/10 04:54:08;;;;;;;;;;;;;;;;;;5118026;27;20360;-77
2022/01/10 04:56:34;;;;;;;;;;;;;;;;;;5117694;27;19929;-77
2022/01/10 04:59:01;;;;;;;;;;;;;;;;;;5117923;27;20007;-77
2022/01/10 05:01:26;;;;;;;;;;;;;;;;;;5117888;27;19953;-77
2022/01/10 05:03:55;;;;;;;;;;;;;;;;;;5117115;27;19922;-77
2022/01/10 05:06:21;;;;;;;;;;;;;;;;;;5117667;27;19911;-77
2022/01/10 05:08:48;;;;;;;;;;;;;;;;;;5117568;27;20019;-77
2022/01/10 05:11:24;;;;;;;;;;;;;;;;;;5117698;27;19972;-77
2022/01/10 05:13:50;;;;;;;;;;;;;;;;;;5117633;27;19916;-77
2022/01/10 05:16:16;;;;;;;;;;;;;;;;;;5117644;27;19929;-77
2022/01/10 05:18:41;;;;;;;;;;;;;;;;;;5117612;27;20368;-77
2022/01/10 05:21:07;;;;;;;;;;;;;;;;;;5117560;27;19964;-77
2022/01/10 05:23:33;;;;;;;;;;;;;;;;;;5135688;27;19916;-78
2022/01/10 05:25:58;;;;;;;;;;;;;;;;;;5117401;27;20387;-77
2022/01/10 05:28:25;;;;;;;;;;;;;;;;;;5134184;27;19915;-76
2022/01/10 05:30:52;;;;;;;;;;;;;;;;;;5117348;27;19942;-77
2022/01/10 05:33:21;;;;;;;;;;;;;;;;;;5117215;27;20001;-77
2022/01/10 05:35:48;;;;;;;;;;;;;;;;;;5117225;27;19922;-77
2022/01/10 05:38:14;;;;;;;;;;;;;;;;;;5135398;27;19994;-77
2022/01/10 05:40:40;;;;;;;;;;;;;;;;;;5135823;27;19919;-77
2022/01/10 05:43:07;;;;;;;;;;;;;;;;;;5117209;27;19915;-77
2022/01/10 05:45:32;;;;;;;;;;;;;;;;;;5117085;27;20389;-77
2022/01/10 05:48:06;;;;;;;;;;;;;;;;;;5112662;28;19942;-77
2022/01/10 05:50:34;;;;;;;;;;;;;;;;;;5113280;28;19940;-77
2022/01/10 05:53:04;;;;;;;;;;;;;;;;;;5113503;28;20419;-77
2022/01/10 05:55:29;;;;;;;;;;;;;;;;;;5112997;28;19920;-77
2022/01/10 05:57:55;;;;;;;;;;;;;;;;;;5113154;28;19916;-77
2022/01/10 06:00:21;;;;;;;;;;;;;;;;;;5096433;28;20010;-77
2022/01/10 06:02:46;;;;;;;;;;;;;;;;;;5114053;28;19955;-77
2022/01/10 06:05:24;;;;;;;;;;;;;;;;;;5113146;28;19916;-77
2022/01/10 06:07:50;;;;;;;;;;;;;;;;;;5113206;28;19938;-77
2022/01/10 06:10:16;;;;;;;;;;;;;;;;;;5114240;28;19977;-77
2022/01/10 06:12:42;;;;;;;;;;;;;;;;;;5113012;28;19923;-77
2022/01/10 06:15:07;;;;;;;;;;;;;;;;;;5096151;28;19916;-77
2022/01/10 06:17:39;;;;;;;;;;;;;;;;;;5113001;28;20384;-77
2022/01/10 06:20:05;;;;;;;;;;;;;;;;;;5113089;28;20399;-77
2022/01/10 06:22:30;;;;;;;;;;;;;;;;;;5113224;28;20294;-77
2022/01/10 06:24:56;;;;;;;;;;;;;;;;;;5114299;28;19916;-77
2022/01/10 06:27:22;;;;;;;;;;;;;;;;;;5112900;28;20361;-77
2022/01/10 06:29:48;;;;;;;;;;;;;;;;;;5112673;28;19923;-77
2022/01/10 06:32:14;;;;;;;;;;;;;;;;;;5100944;28;19920;-77
2022/01/10 06:34:39;;;;;;;;;;;;;;;;;;5093801;28;19916;-77
2022/01/10 06:37:05;;;;;;;;;;;;;;;;;;5096420;28;19916;-77
2022/01/10 06:39:36;;;;;;;;;;;;;;;;;;5092463;28;19916;-77
2022/01/10 06:42:02;;;;;;;;;;;;;;;;;;5093906;28;19969;-77
2022/01/10 06:44:28;;;;;;;;;;;;;;;;;;5092474;28;19920;-77
2022/01/10 06:46:53;;;;;;;;;;;;;;;;;;5094227;28;19916;-77
2022/01/10 06:49:18;;;;;;;;;;;;;;;;;;5095878;28;20373;-77
2022/01/10 06:51:44;;;;;;;;;;;;;;;;;;5113869;28;19924;-77
2022/01/10 06:54:09;;;;;;;;;;;;;;;;;;5114155;28;20351;-76
2022/01/10 06:56:34;;;;;;;;;;;;;;;;;;5095813;28;19916;-76
2022/01/10 06:59:00;;;;;;;;;;;;;;;;;;5095583;28;19961;-77
2022/01/10 07:01:33;;;;;;;;;;;;;;;;;;5095576;28;19916;-77
2022/01/10 07:04:00;;;;;;;;;;;;;;;;;;5109163;28;19974;-77
2022/01/10 07:06:25;;;;;;;;;;;;;;;;;;5116158;28;19968;-77
2022/01/10 07:08:52;;;;;;;;;;;;;;;;;;5115848;28;20384;-77
2022/01/10 07:11:24;;;;;;;;;;;;;;;;;;5100152;28;19926;-77
2022/01/10 07:13:49;;;;;;;;;;;;;;;;;;5102997;27;19919;-77
2022/01/10 07:16:15;;;;;;;;;;;;;;;;;;5120029;27;19922;-76
2022/01/10 07:18:43;;;;;;;;;;;;;;;;;;5119929;27;19915;-77
2022/01/10 07:21:18;;;;;;;;;;;;;;;;;;5119735;27;19915;-76
2022/01/10 07:23:43;;;;;;;;;;;;;;;;;;5120014;27;20364;-77
2022/01/10 07:26:09;;;;;;;;;;;;;;;;;;5138049;27;20289;-76
2022/01/10 07:28:34;;;;;;;;;;;;;;;;;;5137676;27;20028;-77
2022/01/10 07:30:59;;;;;;;;;;;;;;;;;;5119176;27;19925;-77
2022/01/10 07:33:25;;;;;;;;;;;;;;;;;;5137947;27;19957;-77
2022/01/10 07:35:50;;;;;;;;;;;;;;;;;;5138078;27;19954;-77
2022/01/10 07:38:15;;;;;;;;;;;;;;;;;;5137964;27;19922;-76
2022/01/10 07:40:41;;;;;;;;;;;;;;;;;;5137754;27;20389;-76
2022/01/10 07:43:06;;;;;;;;;;;;;;;;;;5137801;27;20367;-77
2022/01/10 07:45:36;;;;;;;;;;;;;;;;;;5119478;27;20285;-75
2022/01/10 07:48:02;;;;;;;;;;;;;;;;;;5136755;27;19919;-75
2022/01/10 07:50:27;;;;;;;;;;;;;;;;;;5137937;27;20063;-76
2022/01/10 07:52:53;;;;;;;;;;;;;;;;;;5121435;27;19923;-78
2022/01/10 07:55:18;;;;;;;;;;;;;;;;;;5137872;27;20444;-77
2022/01/10 07:57:45;;;;;;;;;;;;;;;;;;5137300;27;20437;-78
2022/01/10 08:00:11;;;;;;;;;;;;;;;;;;5133623;27;19988;-76
2022/01/10 08:02:39;;;;;;;;;;;;;;;;;;5116828;28;20289;-78
2022/01/10 08:05:07;;;;;;;;;;;;;;;;;;5115858;28;19915;-76
2022/01/10 08:07:32;;;;;;;;;;;;;;;;;;5116716;28;19916;-75
2022/01/10 08:09:57;;;;;;;;;;;;;;;;;;5116802;28;19922;-78
2022/01/10 08:12:23;;;;;;;;;;;;;;;;;;5115444;28;19920;-78
2022/01/10 08:14:48;;;;;;;;;;;;;;;;;;5114308;28;19915;-78
2022/01/10 08:17:14;;;;;;;;;;;;;;;;;;5114751;28;19955;-76
2022/01/10 08:19:39;;;;;;;;;;;;;;;;;;5116023;28;20010;-75
2022/01/10 08:22:04;;;;;;;;;;;;;;;;;;5116866;28;19916;-77
2022/01/10 08:24:30;;;;;;;;;;;;;;;;;;5115273;28;19916;-77
2022/01/10 08:26:55;;;;;;;;;;;;;;;;;;5116875;28;19924;-79
2022/01/10 08:29:21;;;;;;;;;;;;;;;;;;5117185;28;19919;-78
2022/01/10 08:31:47;;;;;;;;;;;;;;;;;;5132662;27;19919;-76
2022/01/10 08:34:12;;;;;;;;;;;;;;;;;;5122050;27;20304;-77
2022/01/10 08:36:38;;;;;;;;;;;;;;;;;;5115943;28;20010;-76
2022/01/10 08:39:04;;;;;;;;;;;;;;;;;;5115990;28;19916;-77
2022/01/10 08:41:29;;;;;;;;;;;;;;;;;;5115657;28;19920;-78
2022/01/10 08:43:55;;;;;;;;;;;;;;;;;;5115278;28;19922;-77
2022/01/10 08:46:20;;;;;;;;;;;;;;;;;;5116091;28;20040;-76
2022/01/10 08:48:45;;;;;;;;;;;;;;;;;;5115573;28;19973;-77
2022/01/10 08:51:11;;;;;;;;;;;;;;;;;;5115818;28;19967;-76
2022/01/10 08:53:36;;;;;;;;;;;;;;;;;;5115860;28;19916;-76
2022/01/10 08:56:02;;;;;;;;;;;;;;;;;;5115822;28;20428;-76
2022/01/10 08:58:32;;;;;;;;;;;;;;;;;;5115596;28;19916;-77
2022/01/10 09:01:02;;;;;;;;;;;;;;;;;;5125603;27;19922;-77
2022/01/10 09:03:27;;;;;;;;;;;;;;;;;;5135768;27;19915;-77
2022/01/10 09:05:55;;;;;;;;;;;;;;;;;;5136161;27;20064;-77
2022/01/10 09:08:20;;;;;;;;;;;;;;;;;;5136311;27;19923;-75
2022/01/10 09:10:45;;;;;;;;;;;;;;;;;;5135838;27;20022;-78
2022/01/10 09:13:11;;;;;;;;;;;;;;;;;;5117573;27;20314;-78
2022/01/10 09:15:37;;;;;;;;;;;;;;;;;;5136601;27;19915;-77
2022/01/10 09:18:03;;;;;;;;;;;;;;;;;;5141022;27;20441;-78
2022/01/10 09:20:29;;;;;;;;;;;;;;;;;;5121895;27;19915;-77
2022/01/10 09:22:54;;;;;;;;;;;;;;;;;;5139202;27;19915;-79
2022/01/10 09:25:19;;;;;;;;;;;;;;;;;;5141528;27;19923;-79
2022/01/10 09:27:45;;;;;;;;;;;;;;;;;;5133234;27;20289;-77
2022/01/10 09:30:11;;;;;;;;;;;;;;;;;;5138210;27;19923;-77
2022/01/10 09:32:36;;;;;;;;;;;;;;;;;;5135561;27;19919;-77
2022/01/10 09:35:01;;;;;;;;;;;;;;;;;;5105180;27;20440;-77
2022/01/10 09:37:27;;;;;;;;;;;;;;;;;;5134937;27;19938;-78
2022/01/10 09:39:53;;;;;;;;;;;;;;;;;;5135635;27;19954;-76
2022/01/10 09:42:18;;;;;;;;;;;;;;;;;;5135649;27;19968;-76
2022/01/10 09:44:43;;;;;;;;;;;;;;;;;;5135555;27;20265;-77
2022/01/10 09:47:09;;;;;;;;;;;;;;;;;;5134997;27;19919;-76
2022/01/10 09:49:34;;;;;;;;;;;;;;;;;;5134913;27;21692;-77
2022/01/10 09:52:00;;;;;;;;;;;;;;;;;;5135089;27;19919;-78
2022/01/10 09:54:26;;;;;;;;;;;;;;;;;;5135123;27;20018;-76
2022/01/10 09:56:51;;;;;;;;;;;;;;;;;;5135260;27;19961;-77
2022/01/10 09:59:17;;;;;;;;;;;;;;;;;;5116957;27;19915;-76
2022/01/10 10:01:43;;;;;;;;;;;;;;;;;;5135277;27;19923;-76
2022/01/10 10:04:10;;;;;;;;;;;;;;;;;;5134910;27;19919;-77
2022/01/10 10:06:35;;;;;;;;;;;;;;;;;;5135035;27;19915;-77
2022/01/10 10:09:03;;;;;;;;;;;;;;;;;;5116677;27;19957;-76
2022/01/10 10:11:55;;;;;;;;;;;;;;;;;;5116618;27;19919;-76
2022/01/10 10:14:21;;;;;;;;;;;;;;;;;;5129995;27;19923;-75
2022/01/10 10:16:49;;;;;;;;;;;;;;;;;;5116390;27;20307;-76
2022/01/10 10:19:16;;;;;;;;;;;;;;;;;;5134879;27;19919;-75
2022/01/10 10:21:41;;;;;;;;;;;;;;;;;;5134734;27;19971;-77
2022/01/10 10:24:06;;;;;;;;;;;;;;;;;;5134745;27;20358;-77
2022/01/10 10:26:32;;;;;;;;;;;;;;;;;;5134552;27;19915;-76
2022/01/10 10:28:58;;;;;;;;;;;;;;;;;;5134878;27;19916;-76
2022/01/10 10:31:27;;;;;;;;;;;;;;;;;;5134121;27;21571;-76
2022/01/10 10:33:54;;;;;;;;;;;;;;;;;;5134834;28;20383;-76
2022/01/10 10:36:20;;;;;;;;;;;;;;;;;;5134731;28;19919;-76
2022/01/10 10:38:45;;;;;;;;;;;;;;;;;;5134577;27;19915;-75
2022/01/10 10:41:11;;;;;;;;;;;;;;;;;;5134731;28;19938;-76
2022/01/10 10:43:38;;;;;;;;;;;;;;;;;;5135024;28;19937;-76
2022/01/10 10:46:04;;;;;;;;;;;;;;;;;;5134435;27;19915;-76
2022/01/10 10:48:30;;;;;;;;;;;;;;;;;;5138007;27;20380;-76
2022/01/10 10:50:57;;;;;;;;;;;;;;;;;;5139087;27;19919;-76
2022/01/10 10:53:25;;;;;;;;;;;;;;;;;;5139049;27;19916;-75
2022/01/10 10:55:51;;;;;;;;;;;;;;;;;;5138714;27;19916;-74
2022/01/10 10:58:16;;;;;;;;;;;;;;;;;;5138519;27;19915;-75
2022/01/10 11:00:41;;;;;;;;;;;;;;;;;;5138408;27;20006;-75
2022/01/10 11:03:09;;;;;;;;;;;;;;;;;;5138677;27;19920;-76
2022/01/10 11:05:34;;;;;;;;;;;;;;;;;;5099707;28;20383;-74
2022/01/10 11:08:00;;;;;;;;;;;;;;;;;;5118142;28;19920;-77
2022/01/10 11:10:25;;;;;;;;;;;;;;;;;;5099983;28;20365;-75
2022/01/10 11:12:53;;;;;;;;;;;;;;;;;;5118117;28;19919;-77
2022/01/10 11:15:19;;;;;;;;;;;;;;;;;;5117753;28;20335;-78
2022/01/10 11:17:44;;;;;;;;;;;;;;;;;;5117567;28;19912;-76
2022/01/10 11:20:11;;;;;;;;;;;;;;;;;;5117738;28;19919;-75
2022/01/10 11:22:38;;;;;;;;;;;;;;;;;;5117734;28;19923;-75
2022/01/10 11:25:03;;;;;;;;;;;;;;;;;;5117599;28;20296;-75
2022/01/10 11:27:28;;;;;;;;;;;;;;;;;;5117523;28;19916;-76
2022/01/10 11:29:56;;;;;;;;;;;;;;;;;;5120501;27;19938;-76
2022/01/10 11:32:41;;;;;;;;;;;;;;;;;;5125479;27;19930;-76
2022/01/10 11:35:07;;;;;;;;;;;;;;;;;;5110170;28;20369;-75
2022/01/10 11:37:32;;;;;;;;;;;;;;;;;;5125433;27;20361;-76
2022/01/10 11:39:58;;;;;;;;;;;;;;;;;;5128790;27;19942;-75
2022/01/10 11:42:23;;;;;;;;;;;;;;;;;;5108695;27;20056;-73
2022/01/10 11:45:07;;;;;;;;;;;;;;;;;;5122825;27;19961;-77
2022/01/10 11:47:54;;;;;;;;;;;;;;;;;;5095536;28;20398;-74
2022/01/10 11:50:28;;;;;;;;;;;;;;;;;;5104931;28;19923;-77
2022/01/10 11:52:54;;;;;;;;;;;;;;;;;;5098679;28;19946;-79
2022/01/10 11:55:29;;;;;;;;;;;;;;;;;;5101437;28;19919;-77
2022/01/10 11:58:01;;;;;;;;;;;;;;;;;;5098876;27;19916;-77
2022/01/10 12:00:35;;;;;;;;;;;;;;;;;;5095206;28;19916;-77
2022/01/10 12:03:00;;;;;;;;;;;;;;;;;;5106273;28;19991;-77
2022/01/10 12:05:25;;;;;;;;;;;;;;;;;;5116784;28;19958;-78
2022/01/10 12:07:51;;;;;;;;;;;;;;;;;;5114051;28;19923;-78
2022/01/10 12:10:17;;;;;;;;;;;;;;;;;;5096229;28;19982;-77
2022/01/10 12:12:42;;;;;;;;;;;;;;;;;;5095971;28;19927;-77
2022/01/10 12:15:08;;;;;;;;;;;;;;;;;;5096503;28;19915;-77
2022/01/10 12:17:35;;;;;;;;;;;;;;;;;;5099216;28;19961;-77
2022/01/10 12:20:02;;;;;;;;;;;;;;;;;;5112101;28;19923;-77
2022/01/10 12:22:27;;;;;;;;;;;;;;;;;;5113534;28;19916;-78
2022/01/10 12:24:53;;;;;;;;;;;;;;;;;;5108423;28;20392;-77
2022/01/10 12:27:18;;;;;;;;;;;;;;;;;;5104500;28;19916;-77
2022/01/10 12:29:44;;;;;;;;;;;;;;;;;;5096059;28;19916;-77
2022/01/10 12:32:11;;;;;;;;;;;;;;;;;;5114929;28;20285;-77
2022/01/10 12:34:38;;;;;;;;;;;;;;;;;;5116075;28;19916;-77
2022/01/10 12:37:04;;;;;;;;;;;;;;;;;;5105610;28;20410;-77
2022/01/10 12:39:30;;;;;;;;;;;;;;;;;;5101082;28;19920;-77
2022/01/10 12:41:57;;;;;;;;;;;;;;;;;;5106965;28;19923;-77
2022/01/10 12:44:22;;;;;;;;;;;;;;;;;;5100555;28;19916;-77
2022/01/10 12:46:48;;;;;;;;;;;;;;;;;;5103031;28;19968;-77
2022/01/10 12:49:14;;;;;;;;;;;;;;;;;;5118355;27;20014;-77
2022/01/10 12:51:42;;;;;;;;;;;;;;;;;;5124989;27;19923;-77
2022/01/10 12:54:21;;;;;;;;;;;;;;;;;;5128022;27;19922;-77
2022/01/10 12:56:47;;;;;;;;;;;;;;;;;;5129677;27;19916;-77
2022/01/10 12:59:13;;;;;;;;;;;;;;;;;;5123109;27;19920;-77
2022/01/10 13:01:38;;;;;;;;;;;;;;;;;;5119123;27;19916;-77
2022/01/10 13:04:04;;;;;;;;;;;;;;;;;;5130016;27;19915;-77
2022/01/10 13:06:34;;;;;;;;;;;;;;;;;;5126425;27;19919;-77
2022/01/10 13:09:00;;;;;;;;;;;;;;;;;;5115619;28;20018;-77
2022/01/10 13:11:31;;;;;;;;;;;;;;;;;;5115144;28;20050;-77
2022/01/10 13:14:07;;;;;;;;;;;;;;;;;;5126845;27;19916;-77
2022/01/10 13:16:33;;;;;;;;;;;;;;;;;;5129022;27;19915;-77
2022/01/10 13:18:59;;;;;;;;;;;;;;;;;;5136067;27;19968;-77
2022/01/10 13:21:39;;;;;;;;;;;;;;;;;;5135895;27;19968;-77
2022/01/10 13:24:16;;;;;;;;;;;;;;;;;;5117310;27;19921;-77
2022/01/10 13:27:00;;;;;;;;;;;;;;;;;;5135598;27;20277;-77
2022/01/10 13:29:34;;;;;;;;;;;;;;;;;;5135630;27;19915;-77
2022/01/10 13:32:11;;;;;;;;;;;;;;;;;;5135722;27;19964;-77
2022/01/10 13:34:36;;;;;;;;;;;;;;;;;;5135876;27;19968;-77
2022/01/10 13:37:02;;;;;;;;;;;;;;;;;;5135351;27;19911;-77
2022/01/10 13:39:28;;;;;;;;;;;;;;;;;;5135930;27;19916;-75
2022/01/10 13:42:01;;;;;;;;;;;;;;;;;;5117553;27;20377;-76
2022/01/10 13:44:26;;;;;;;;;;;;;;;;;;5117108;27;20376;-76
2022/01/10 13:47:11;;;;;;;;;;;;;;;;;;5135502;27;19923;-77
2022/01/10 13:49:36;;;;;;;;;;;;;;;;;;5135333;27;19927;-77
2022/01/10 13:52:08;;;;;;;;;;;;;;;;;;5135313;27;19920;-76
2022/01/10 13:54:33;;;;;;;;;;;;;;;;;;5135383;27;20384;-75
2022/01/10 13:57:12;;;;;;;;;;;;;;;;;;5135097;27;19960;-77
2022/01/10 13:59:38;;;;;;;;;;;;;;;;;;5135344;27;19941;-77
2022/01/10 14:02:03;;;;;;;;;;;;;;;;;;5116552;27;19915;-76
2022/01/10 14:04:34;;;;;;;;;;;;;;;;;;5135371;27;19915;-76
2022/01/10 14:07:05;;;;;;;;;;;;;;;;;;5134861;27;19922;-77
2022/01/10 14:09:31;;;;;;;;;;;;;;;;;;5135194;27;20257;-76
2022/01/10 14:11:56;;;;;;;;;;;;;;;;;;5135180;27;20012;-76
2022/01/10 14:14:26;;;;;;;;;;;;;;;;;;5134865;27;19988;-76
2022/01/10 14:16:55;;;;;;;;;;;;;;;;;;5135207;27;20355;-77
2022/01/10 14:19:21;;;;;;;;;;;;;;;;;;5134569;27;19915;-76
2022/01/10 14:21:47;;;;;;;;;;;;;;;;;;5134266;27;19915;-76
2022/01/10 14:24:12;;;;;;;;;;;;;;;;;;5134961;27;20288;-76
2022/01/10 14:26:38;;;;;;;;;;;;;;;;;;5134810;27;19954;-76
2022/01/10 14:29:04;;;;;;;;;;;;;;;;;;5135089;27;19937;-76
2022/01/10 14:31:30;;;;;;;;;;;;;;;;;;5134581;27;19930;-76
2022/01/10 14:33:56;;;;;;;;;;;;;;;;;;5135144;28;19915;-76
2022/01/10 14:36:22;;;;;;;;;;;;;;;;;;5134729;28;20273;-76
2022/01/10 14:38:47;;;;;;;;;;;;;;;;;;5134876;27;20002;-76
2022/01/10 14:41:13;;;;;;;;;;;;;;;;;;5134734;28;19959;-76
2022/01/10 14:43:38;;;;;;;;;;;;;;;;;;5116090;28;19920;-76
2022/01/10 14:46:03;;;;;;;;;;;;;;;;;;5134003;28;20014;-76
2022/01/10 14:48:29;;;;;;;;;;;;;;;;;;5134421;28;19919;-76
2022/01/10 14:50:55;;;;;;;;;;;;;;;;;;5116367;28;19916;-76
2022/01/10 14:53:21;;;;;;;;;;;;;;;;;;5134940;28;19916;-76
2022/01/10 14:55:48;;;;;;;;;;;;;;;;;;5116554;28;20311;-76
2022/01/10 14:58:14;;;;;;;;;;;;;;;;;;5134676;28;20011;-76
2022/01/10 15:00:44;;;;;;;;;;;;;;;;;;5116252;28;19962;-76
2022/01/10 15:03:10;;;;;;;;;;;;;;;;;;5134736;28;20269;-76
2022/01/10 15:05:35;;;;;;;;;;;;;;;;;;5115693;28;19922;-76
2022/01/10 15:08:01;;;;;;;;;;;;;;;;;;5134471;27;20260;-76
2022/01/10 15:10:27;;;;;;;;;;;;;;;;;;5134465;28;19923;-76
2022/01/10 15:12:52;;;;;;;;;;;;;;;;;;5134274;28;20016;-76
2022/01/10 15:15:18;;;;;;;;;;;;;;;;;;5134187;28;19915;-76
2022/01/10 15:17:43;;;;;;;;;;;;;;;;;;5134164;27;19940;-76
2022/01/10 15:20:10;;;;;;;;;;;;;;;;;;5115686;28;19911;-76
2022/01/10 15:22:35;;;;;;;;;;;;;;;;;;5134338;28;19915;-76
2022/01/10 15:25:03;;;;;;;;;;;;;;;;;;5134314;28;20428;-76
2022/01/10 15:27:28;;;;;;;;;;;;;;;;;;5134352;27;19915;-76
2022/01/10 15:29:54;;;;;;;;;;;;;;;;;;5134366;28;20269;-76
2022/01/10 15:32:19;;;;;;;;;;;;;;;;;;5133407;27;19962;-76
2022/01/10 15:34:44;;;;;;;;;;;;;;;;;;5138121;27;19922;-76
2022/01/10 15:37:09;;;;;;;;;;;;;;;;;;5120585;27;19962;-76
2022/01/10 15:39:35;;;;;;;;;;;;;;;;;;5138264;27;20326;-76
2022/01/10 15:42:01;;;;;;;;;;;;;;;;;;5138091;27;19977;-76
2022/01/10 15:44:26;;;;;;;;;;;;;;;;;;5137805;27;19947;-77
2022/01/10 15:46:53;;;;;;;;;;;;;;;;;;5119526;27;19919;-76
2022/01/10 15:49:18;;;;;;;;;;;;;;;;;;5119188;27;19926;-76
2022/01/10 15:51:44;;;;;;;;;;;;;;;;;;5137222;27;20348;-76
2022/01/10 15:54:09;;;;;;;;;;;;;;;;;;5137333;27;19916;-76
2022/01/10 15:56:35;;;;;;;;;;;;;;;;;;5137485;27;19915;-76
2022/01/10 15:59:00;;;;;;;;;;;;;;;;;;5137598;27;19951;-77
2022/01/10 16:01:25;;;;;;;;;;;;;;;;;;5123570;27;19923;-76
2022/01/10 16:03:51;;;;;;;;;;;;;;;;;;5099088;28;20049;-76
2022/01/10 16:06:16;;;;;;;;;;;;;;;;;;5116975;28;19916;-76
2022/01/10 16:08:42;;;;;;;;;;;;;;;;;;5116864;28;20292;-76
2022/01/10 16:11:07;;;;;;;;;;;;;;;;;;5116852;28;19919;-76
2022/01/10 16:13:33;;;;;;;;;;;;;;;;;;5116524;28;19923;-77
2022/01/10 16:15:59;;;;;;;;;;;;;;;;;;5116663;28;19919;-76
2022/01/10 16:18:25;;;;;;;;;;;;;;;;;;5116471;28;20006;-76
2022/01/10 16:20:51;;;;;;;;;;;;;;;;;;5116734;28;19942;-76
2022/01/10 16:23:16;;;;;;;;;;;;;;;;;;5098204;28;19916;-76
2022/01/10 16:25:42;;;;;;;;;;;;;;;;;;5116443;28;19955;-77
2022/01/10 16:28:07;;;;;;;;;;;;;;;;;;5116281;28;20433;-76
2022/01/10 16:30:32;;;;;;;;;;;;;;;;;;5098155;28;19916;-76
2022/01/10 16:32:58;;;;;;;;;;;;;;;;;;5116403;28;20377;-76
2022/01/10 16:35:24;;;;;;;;;;;;;;;;;;5116365;28;19916;-76
2022/01/10 16:37:49;;;;;;;;;;;;;;;;;;5097939;28;20269;-76
2022/01/10 16:40:14;;;;;;;;;;;;;;;;;;5097917;28;19915;-76
2022/01/10 16:42:40;;;;;;;;;;;;;;;;;;5116045;28;19941;-76
2022/01/10 16:45:06;;;;;;;;;;;;;;;;;;5115226;27;19916;-77
2022/01/10 16:47:31;;;;;;;;;;;;;;;;;;5136402;27;19926;-76
2022/01/10 16:49:58;;;;;;;;;;;;;;;;;;5118086;27;20441;-76
2022/01/10 16:52:23;;;;;;;;;;;;;;;;;;5136644;27;19919;-76
2022/01/10 16:54:50;;;;;;;;;;;;;;;;;;5136355;27;20461;-76